• Join FlightAware (Why Join?)
  • Login
  • US Flag 
09:13AM EDT


 

Airport Tracker/Info


-or-


 

Live Flight TrackerFlight Track Log ✈ GGN7280 ✈ 29-Jun-2013 ✈ CYYZ - KALB

Flight Track Log - Related Links

Times and Time Zones

All times are in EDT time to prevent confusion due to time zone crossing. See the GGN7280 flight status page for this flight to view local times or setup timezone preferences in your user account.

Time Position Orientation Groundspeed Altitude Reporting Facility
EDT Latitude Longitude Course Direction KTS MPH feet Rate Location/Type
09:57AM 43.6667 -79.5667 100° East 150 173 1,700  Level Toronto Center
09:58AM 43.6667 -79.5000 90° East 170 196 3,400 1,560 Climbing Toronto Center
09:59AM 43.6500 -79.4333 109° East 180 207 4,900 1,320 Climbing Toronto Center
10:00AM 43.6167 -79.3833 133° Southeast 200 230 6,100 1,020 Climbing Toronto Center
10:01AM 43.5833 -79.3167 125° Southeast 220 253 7,000 900 Climbing Toronto Center
10:02AM 43.5500 -79.2167 115° Southeast 230 265 7,900 480 Climbing Toronto Center
10:03AM 43.5103 -78.4149 100° East  Level Estimated
10:03AM 43.5167 -79.1333 119° Southeast 240 276 8,000  Level Toronto Center
10:04AM 43.4833 -79.0667 125° Southeast 260 299 8,100 300 Climbing Toronto Center
10:05AM 43.4500 -78.9667 115° Southeast 260 299 8,700 960 Climbing Toronto Center
10:06AM 43.4167 -78.8833 119° Southeast 240 276 10,100 1,200 Climbing Toronto Center
10:07AM 43.3833 -78.8000 119° Southeast 230 265 11,100 480 Climbing Toronto Center
10:08AM 43.3503 -78.7589 138° Southeast 238 274 11,100  Level Cleveland Center
10:09AM 43.3072 -78.6775 126° Southeast 252 290 11,100 720 Level Cleveland Center
10:11AM 43.2256 -78.5206 125° Southeast 255 293 13,300 1,020 Climbing Cleveland Center
10:12AM 43.1886 -78.4419 123° Southeast 250 288 14,300 960 Climbing Cleveland Center
10:13AM 43.1703 -78.3572 106° East 235 270 15,300 1,020 Climbing Cleveland Center
10:14AM 43.1747 -78.2658 86° East 230 265 16,400 960 Climbing Cleveland Center
10:15AM 43.1667 -78.1722 97° East 230 265 17,300 960 Climbing Cleveland Center
10:16AM 43.1586 -78.0900 98° East 235 270 18,400 900 Climbing Cleveland Center
10:17AM 43.1525 -78.0050 96° East 235 270 19,100 660 Climbing Cleveland Center
10:18AM 43.1486 -77.9169 93° East 235 270 19,800 780 Climbing Cleveland Center
10:19AM 43.1403 -77.8319 98° East 235 270 20,700 540 Climbing Cleveland Center
10:20AM 43.1319 -77.7411 97° East 235 270 20,900 120 Climbing Cleveland Center
10:21AM 43.1231 -77.6419 97° East 245 282 21,000  Climbing Cleveland Center
10:22AM 43.1142 -77.5400 97° East 257 296 21,000  Level Cleveland Center
10:23AM 43.1053 -77.4408 97° East 262 302 21,000  Level Cleveland Center
10:24AM 43.0986 -77.3444 95° East 257 296 21,000  Level Cleveland Center
10:25AM 43.0914 -77.2453 96° East 257 296 21,000  Level Cleveland Center
10:26AM 43.0825 -77.1464 97° East 257 296 21,000  Level Cleveland Center
10:28AM 43.0500 -76.9167 101° East 260 299 21,000  Level Toronto Center
10:29AM 43.0500 -76.8333 90° East 260 299 21,000  Level Toronto Center
10:30AM 43.0333 -76.7333 103° East 260 299 21,000  Level Toronto Center
10:31AM 43.0167 -76.6167 101° East 260 299 21,000  Level Toronto Center
10:32AM 43.0167 -76.5333 90° East 260 299 21,000  Level Toronto Center
10:33AM 43.0000 -76.4333 103° East 260 299 21,000  Level Toronto Center
10:33AM 43.0186 -76.4247 19° North 257 296 21,000  Level Boston Center
10:34AM 43.0100 -76.3106 96° East 257 296 21,000  Level Boston Center
10:35AM 43.0008 -76.2106 97° East 257 296 21,000  Level Boston Center
10:36AM 42.9914 -76.1108 97° East 257 296 21,000  Level Boston Center
10:37AM 42.9822 -76.0136 97° East 257 296 21,000 -300 Level Boston Center
10:38AM 42.9750 -75.9081 95° East 262 302 20,400 -840 Descending Boston Center
10:39AM 42.9781 -75.8006 88° East 272 313 19,400 -1,260 Descending Boston Center
10:40AM 42.9792 -75.6897 89° East 277 319 17,900 -1,440 Descending Boston Center
10:41AM 42.9847 -75.5736 86° East 290 334 16,600 -1,320 Descending Boston Center
10:42AM 42.9856 -75.4603 89° East 290 334 15,300 -1,200 Descending Boston Center
10:43AM 42.9928 -75.3442 85° East 290 334 14,300 -1,140 Descending Boston Center
10:44AM 42.9956 -75.2308 88° East 295 339 13,100 -1,200 Descending Boston Center
10:45AM 42.9983 -75.1144 88° East 295 339 11,900 -1,020 Descending Boston Center
10:46AM 42.9989 -75.0008 90° East 295 339 11,100 -420 Descending Boston Center
10:47AM 43.0014 -74.8903 88° East 295 339 11,100  Level Boston Center
10:48AM 43.0008 -74.8219 91° East 277 319 11,100  Level Boston Center
10:49AM 43.0042 -74.7569 86° East 276 318 11,100  Level Boston Center
10:49AM 43.0014 -74.6886 93° East 279 321 11,100 -60 Level Boston Center
10:50AM 43.0014 -74.5750 90° East 274 315 11,000  Descending Boston Center
10:51AM 42.9739 -74.4917 114° Southeast 264 304 11,100 -720 Climbing Boston Center
10:53AM 42.9636 -74.3553 96° East 298 343 9,500 -1,080 Descending Boston Center
10:53AM 42.9564 -74.2897 99° East 284 327 9,000 -1,080 Descending Boston Center
10:54AM 42.9461 -74.1589 96° East 284 327 7,600 -1,140 Descending Boston Center
10:55AM 42.9431 -74.0653 93° East 284 327 6,800 -1,080 Descending Boston Center
10:56AM 42.9344 -73.9517 96° East 272 313 5,500 -1,260 Descending Boston Center
10:57AM 42.9272 -73.8636 96° East 272 313 4,300 -1,440 Descending Boston Center
10:58AM 42.8797 -73.8169 144° Southeast 211 243 2,700 -1,020 Descending Boston Center
10:59AM 42.8258 -73.7933 162° South 193 222 2,300 -1,020 Descending Boston Center
11:01AM 42.7631 -73.8089 190° South 123 142 400 -1,380 Descending Boston Center
11:04AM 42.7491 -73.8020 175° South  Level Estimated
11:11AM 42.7491 -73.8020 175° South  Level Estimated